This is the latest recevied weather packets stored in our database for station/object N1ICS-1. If no packets are shown the sender has not sent any weather packets the latest 10 day(s).
| Time | Temp. | Humidity | Pressure | Rain* | Wind** | Luminosity | Snow |
|---|---|---|---|---|---|---|---|
| 1777963202 | 16.11° C | 79% | 1006.6 hPa | 0 mm | - | 0 W/m² | - |
| 1777962902 | 16.67° C | 76% | 1006.5 hPa | 0 mm | - | 0 W/m² | - |
| 1777962603 | 16.67° C | 74% | 1006.4 hPa | 0 mm | - | 0 W/m² | - |
| 1777962302 | 17.22° C | 74% | 1006 hPa | 0 mm | - | 0 W/m² | - |
| 1777962002 | 16.67° C | 74% | 1006.2 hPa | 0 mm | - | 0 W/m² | - |
| 1777961702 | 17.22° C | 75% | 1006 hPa | 0 mm | - | 0 W/m² | - |
| 1777961403 | 17.22° C | 74% | 1005.8 hPa | 0 mm | - | 0 W/m² | - |
| 1777961102 | 16.67° C | 76% | 1005.8 hPa | 0 mm | - | 0 W/m² | - |
| 1777960802 | 17.22° C | 75% | 1006 hPa | 0 mm | - | 0 W/m² | - |
| 1777960502 | 17.22° C | 74% | 1005.8 hPa | 0 mm | - | 0 W/m² | - |
| 1777960202 | 17.22° C | 73% | 1005.9 hPa | 0 mm | - | 0 W/m² | - |
| 1777959901 | 16.67° C | 76% | 1005.9 hPa | 0 mm | - | 0 W/m² | - |
| 1777959602 | 15.56° C | 82% | 1005.8 hPa | 0 mm | - | 0 W/m² | - |
| 1777959302 | 16.11° C | 79% | 1005.9 hPa | 0 mm | - | 0 W/m² | - |
| 1777959002 | 17.22° C | 75% | 1005.8 hPa | 0 mm | - | 0 W/m² | - |
| 1777958702 | 17.22° C | 74% | 1005.6 hPa | 0 mm | - | 0 W/m² | - |
| 1777958402 | 17.78° C | 73% | 1005.5 hPa | 0 mm | - | 0 W/m² | - |
| 1777958102 | 17.22° C | 74% | 1005.4 hPa | 0 mm | - | 0 W/m² | - |
| 1777957802 | 17.22° C | 73% | 1005 hPa | 0 mm | - | 0 W/m² | - |
| 1777957502 | 17.78° C | 72% | 1004.9 hPa | 0 mm | - | 0 W/m² | - |
| 1777957203 | 18.33° C | 68% | 1004.7 hPa | 0 mm | - | 0 W/m² | - |
| 1777956902 | 18.89° C | 66% | 1004.5 hPa | 0 mm | - | 0 W/m² | - |
| 1777956602 | 18.89° C | 65% | 1004.3 hPa | 0 mm | - | 0 W/m² | - |
| 1777956302 | 18.89° C | 67% | 1004.3 hPa | 0 mm | - | 0 W/m² | - |
| 1777956001 | 18.89° C | 66% | 1004.4 hPa | 0 mm | - | 0 W/m² | - |
* Rain latest hour (hover to see other rain measurements)
** Current wind speed in m/s (hover to see current wind gust speed)